sensor_id;sensor_type;location;lat;lon;timestamp;P1;durP1;ratioP1;P2;durP2;ratioP2
7783;SDS011;19359;51.402;6.778;2023-05-29T00:01:19;596.80;;;357.52;;
7783;SDS011;19359;51.402;6.778;2023-05-29T00:03:49;599.35;;;366.08;;
7783;SDS011;19359;51.402;6.778;2023-05-29T00:06:16;577.47;;;365.75;;
7783;SDS011;19359;51.402;6.778;2023-05-29T00:08:43;590.38;;;354.90;;
7783;SDS011;19359;51.402;6.778;2023-05-29T00:11:11;552.28;;;349.45;;
7783;SDS011;19359;51.402;6.778;2023-05-29T00:13:38;538.08;;;339.95;;
7783;SDS011;19359;51.402;6.778;2023-05-29T00:16:05;553.15;;;344.83;;
7783;SDS011;19359;51.402;6.778;2023-05-29T00:18:34;553.88;;;344.55;;
7783;SDS011;19359;51.402;6.778;2023-05-29T00:21:01;527.22;;;346.02;;
7783;SDS011;19359;51.402;6.778;2023-05-29T00:23:28;549.65;;;340.83;;
7783;SDS011;19359;51.402;6.778;2023-05-29T00:25:55;592.83;;;353.75;;
7783;SDS011;19359;51.402;6.778;2023-05-29T00:28:23;565.95;;;325.63;;
7783;SDS011;19359;51.402;6.778;2023-05-29T00:30:51;588.67;;;331.15;;
7783;SDS011;19359;51.402;6.778;2023-05-29T00:33:18;576.15;;;333.00;;
7783;SDS011;19359;51.402;6.778;2023-05-29T00:35:45;591.28;;;335.15;;
7783;SDS011;19359;51.402;6.778;2023-05-29T00:38:12;594.10;;;323.95;;
7783;SDS011;19359;51.402;6.778;2023-05-29T00:40:39;575.85;;;327.90;;
7783;SDS011;19359;51.402;6.778;2023-05-29T00:43:06;607.20;;;326.75;;
7783;SDS011;19359;51.402;6.778;2023-05-29T00:45:35;554.50;;;327.60;;
7783;SDS011;19359;51.402;6.778;2023-05-29T00:48:02;540.10;;;316.75;;
7783;SDS011;19359;51.402;6.778;2023-05-29T00:50:29;555.53;;;325.48;;
7783;SDS011;19359;51.402;6.778;2023-05-29T00:52:56;545.72;;;330.58;;
7783;SDS011;19359;51.402;6.778;2023-05-29T00:55:24;470.15;;;316.00;;
7783;SDS011;19359;51.402;6.778;2023-05-29T00:57:51;509.60;;;330.63;;
7783;SDS011;19359;51.402;6.778;2023-05-29T01:00:18;548.13;;;329.33;;
7783;SDS011;19359;51.402;6.778;2023-05-29T01:02:47;539.42;;;325.33;;
7783;SDS011;19359;51.402;6.778;2023-05-29T01:05:17;514.13;;;327.08;;
7783;SDS011;19359;51.402;6.778;2023-05-29T01:07:45;542.60;;;320.65;;
7783;SDS011;19359;51.402;6.778;2023-05-29T01:10:12;591.47;;;321.80;;
7783;SDS011;19359;51.402;6.778;2023-05-29T01:12:43;605.08;;;314.33;;
7783;SDS011;19359;51.402;6.778;2023-05-29T01:15:15;583.53;;;305.88;;
7783;SDS011;19359;51.402;6.778;2023-05-29T01:17:51;443.80;;;298.73;;
7783;SDS011;19359;51.402;6.778;2023-05-29T01:20:31;510.10;;;287.42;;
7783;SDS011;19359;51.402;6.778;2023-05-29T01:23:07;490.13;;;273.77;;
7783;SDS011;19359;51.402;6.778;2023-05-29T01:25:43;487.35;;;266.45;;
7783;SDS011;19359;51.402;6.778;2023-05-29T01:28:15;470.90;;;261.35;;
7783;SDS011;19359;51.402;6.778;2023-05-29T01:30:43;478.13;;;256.48;;
7783;SDS011;19359;51.402;6.778;2023-05-29T01:33:10;464.45;;;257.33;;
7783;SDS011;19359;51.402;6.778;2023-05-29T01:35:37;465.35;;;273.20;;
7783;SDS011;19359;51.402;6.778;2023-05-29T01:38:04;465.83;;;248.90;;
7783;SDS011;19359;51.402;6.778;2023-05-29T01:40:31;464.58;;;258.98;;
7783;SDS011;19359;51.402;6.778;2023-05-29T01:42:59;394.25;;;233.98;;
7783;SDS011;19359;51.402;6.778;2023-05-29T01:45:28;404.40;;;238.35;;
7783;SDS011;19359;51.402;6.778;2023-05-29T01:47:55;406.55;;;236.38;;
7783;SDS011;19359;51.402;6.778;2023-05-29T01:50:22;429.75;;;232.38;;
7783;SDS011;19359;51.402;6.778;2023-05-29T01:52:50;422.10;;;234.02;;
7783;SDS011;19359;51.402;6.778;2023-05-29T01:55:17;246.05;;;168.13;;
7783;SDS011;19359;51.402;6.778;2023-05-29T01:57:45;288.98;;;200.23;;
7783;SDS011;19359;51.402;6.778;2023-05-29T02:00:13;343.27;;;206.10;;
7783;SDS011;19359;51.402;6.778;2023-05-29T02:02:41;309.20;;;198.48;;
7783;SDS011;19359;51.402;6.778;2023-05-29T02:05:09;371.17;;;213.27;;
7783;SDS011;19359;51.402;6.778;2023-05-29T02:07:36;402.25;;;206.18;;
7783;SDS011;19359;51.402;6.778;2023-05-29T02:10:04;426.25;;;207.25;;
7783;SDS011;19359;51.402;6.778;2023-05-29T02:12:31;437.33;;;223.77;;
7783;SDS011;19359;51.402;6.778;2023-05-29T02:14:58;429.08;;;214.77;;
7783;SDS011;19359;51.402;6.778;2023-05-29T02:17:25;448.15;;;212.13;;
7783;SDS011;19359;51.402;6.778;2023-05-29T02:19:54;401.77;;;217.38;;
7783;SDS011;19359;51.402;6.778;2023-05-29T02:22:20;400.92;;;203.80;;
7783;SDS011;19359;51.402;6.778;2023-05-29T02:24:47;408.05;;;214.63;;
7783;SDS011;19359;51.402;6.778;2023-05-29T02:27:15;324.75;;;197.40;;
7783;SDS011;19359;51.402;6.778;2023-05-29T02:29:42;382.05;;;210.32;;
7783;SDS011;19359;51.402;6.778;2023-05-29T02:32:09;391.23;;;213.57;;
7783;SDS011;19359;51.402;6.778;2023-05-29T02:34:36;418.52;;;219.77;;
7783;SDS011;19359;51.402;6.778;2023-05-29T02:37:05;413.98;;;214.90;;
7783;SDS011;19359;51.402;6.778;2023-05-29T02:39:31;396.52;;;219.70;;
7783;SDS011;19359;51.402;6.778;2023-05-29T02:41:58;407.27;;;213.35;;
7783;SDS011;19359;51.402;6.778;2023-05-29T02:44:26;416.08;;;223.35;;
7783;SDS011;19359;51.402;6.778;2023-05-29T02:46:53;415.85;;;222.05;;
7783;SDS011;19359;51.402;6.778;2023-05-29T02:49:20;418.73;;;220.70;;
7783;SDS011;19359;51.402;6.778;2023-05-29T02:51:47;430.00;;;214.00;;
7783;SDS011;19359;51.402;6.778;2023-05-29T02:54:15;430.60;;;217.15;;
7783;SDS011;19359;51.402;6.778;2023-05-29T02:56:42;427.85;;;215.25;;
7783;SDS011;19359;51.402;6.778;2023-05-29T02:59:09;408.00;;;198.52;;
7783;SDS011;19359;51.402;6.778;2023-05-29T03:01:36;424.98;;;209.50;;
7783;SDS011;19359;51.402;6.778;2023-05-29T03:04:03;428.45;;;207.82;;
7783;SDS011;19359;51.402;6.778;2023-05-29T03:06:30;463.73;;;217.20;;
7783;SDS011;19359;51.402;6.778;2023-05-29T03:08:58;454.73;;;210.18;;
7783;SDS011;19359;51.402;6.778;2023-05-29T03:11:26;449.70;;;212.52;;
7783;SDS011;19359;51.402;6.778;2023-05-29T03:13:54;443.83;;;209.98;;
7783;SDS011;19359;51.402;6.778;2023-05-29T03:16:21;462.73;;;210.05;;
7783;SDS011;19359;51.402;6.778;2023-05-29T03:18:48;469.10;;;216.10;;
7783;SDS011;19359;51.402;6.778;2023-05-29T03:21:15;462.77;;;206.30;;
7783;SDS011;19359;51.402;6.778;2023-05-29T03:23:42;457.88;;;201.13;;
7783;SDS011;19359;51.402;6.778;2023-05-29T03:26:09;464.73;;;197.32;;
7783;SDS011;19359;51.402;6.778;2023-05-29T03:28:38;462.50;;;195.65;;
7783;SDS011;19359;51.402;6.778;2023-05-29T03:31:05;461.50;;;195.10;;
7783;SDS011;19359;51.402;6.778;2023-05-29T03:33:33;438.70;;;184.68;;
7783;SDS011;19359;51.402;6.778;2023-05-29T03:36:00;449.92;;;192.38;;
7783;SDS011;19359;51.402;6.778;2023-05-29T03:38:27;458.88;;;190.65;;
7783;SDS011;19359;51.402;6.778;2023-05-29T03:40:54;466.95;;;190.93;;
7783;SDS011;19359;51.402;6.778;2023-05-29T03:43:21;413.50;;;183.02;;
7783;SDS011;19359;51.402;6.778;2023-05-29T03:45:50;383.20;;;174.32;;
7783;SDS011;19359;51.402;6.778;2023-05-29T03:48:17;348.45;;;172.57;;
7783;SDS011;19359;51.402;6.778;2023-05-29T03:50:44;379.67;;;176.07;;
7783;SDS011;19359;51.402;6.778;2023-05-29T03:53:11;358.27;;;170.90;;
7783;SDS011;19359;51.402;6.778;2023-05-29T03:55:38;408.92;;;178.55;;
7783;SDS011;19359;51.402;6.778;2023-05-29T03:58:05;303.73;;;127.30;;
7783;SDS011;19359;51.402;6.778;2023-05-29T04:00:32;18.48;;;12.55;;
7783;SDS011;19359;51.402;6.778;2023-05-29T04:03:00;41.97;;;37.20;;
7783;SDS011;19359;51.402;6.778;2023-05-29T04:05:28;26.80;;;24.30;;
7783;SDS011;19359;51.402;6.778;2023-05-29T04:07:55;45.03;;;40.90;;
7783;SDS011;19359;51.402;6.778;2023-05-29T04:10:22;20.23;;;16.33;;
7783;SDS011;19359;51.402;6.778;2023-05-29T04:12:49;32.38;;;29.30;;
7783;SDS011;19359;51.402;6.778;2023-05-29T04:15:17;37.92;;;30.20;;
7783;SDS011;19359;51.402;6.778;2023-05-29T04:17:44;17.25;;;3.00;;
7783;SDS011;19359;51.402;6.778;2023-05-29T04:20:12;16.67;;;3.58;;
7783;SDS011;19359;51.402;6.778;2023-05-29T04:22:39;9.57;;;2.53;;
7783;SDS011;19359;51.402;6.778;2023-05-29T04:25:07;19.90;;;3.53;;
7783;SDS011;19359;51.402;6.778;2023-05-29T04:27:34;9.18;;;2.33;;
7783;SDS011;19359;51.402;6.778;2023-05-29T04:30:02;24.40;;;4.32;;
7783;SDS011;19359;51.402;6.778;2023-05-29T04:32:29;17.98;;;2.88;;
7783;SDS011;19359;51.402;6.778;2023-05-29T04:34:58;13.13;;;3.30;;
7783;SDS011;19359;51.402;6.778;2023-05-29T04:37:28;12.43;;;2.90;;
7783;SDS011;19359;51.402;6.778;2023-05-29T04:39:56;10.68;;;2.50;;
7783;SDS011;19359;51.402;6.778;2023-05-29T04:42:23;15.25;;;2.95;;
7783;SDS011;19359;51.402;6.778;2023-05-29T04:44:50;12.13;;;3.38;;
7783;SDS011;19359;51.402;6.778;2023-05-29T04:47:18;19.90;;;4.10;;
7783;SDS011;19359;51.402;6.778;2023-05-29T04:49:45;18.58;;;3.47;;
7783;SDS011;19359;51.402;6.778;2023-05-29T04:52:15;14.35;;;2.97;;
7783;SDS011;19359;51.402;6.778;2023-05-29T04:54:43;19.98;;;4.40;;
7783;SDS011;19359;51.402;6.778;2023-05-29T04:57:10;11.80;;;2.00;;
7783;SDS011;19359;51.402;6.778;2023-05-29T04:59:37;17.88;;;3.45;;
7783;SDS011;19359;51.402;6.778;2023-05-29T05:02:04;15.77;;;2.58;;
7783;SDS011;19359;51.402;6.778;2023-05-29T05:04:32;8.73;;;2.45;;
7783;SDS011;19359;51.402;6.778;2023-05-29T05:06:59;11.32;;;2.10;;
7783;SDS011;19359;51.402;6.778;2023-05-29T05:09:28;6.72;;;2.00;;
7783;SDS011;19359;51.402;6.778;2023-05-29T05:11:57;6.88;;;1.42;;
7783;SDS011;19359;51.402;6.778;2023-05-29T05:14:23;3.60;;;1.70;;
7783;SDS011;19359;51.402;6.778;2023-05-29T05:16:50;19.27;;;2.83;;
7783;SDS011;19359;51.402;6.778;2023-05-29T05:19:17;8.95;;;2.45;;
7783;SDS011;19359;51.402;6.778;2023-05-29T05:21:44;12.50;;;3.38;;
7783;SDS011;19359;51.402;6.778;2023-05-29T05:24:12;6.90;;;1.48;;
7783;SDS011;19359;51.402;6.778;2023-05-29T05:26:39;10.55;;;2.58;;
7783;SDS011;19359;51.402;6.778;2023-05-29T05:29:07;14.57;;;2.65;;
7783;SDS011;19359;51.402;6.778;2023-05-29T05:31:34;8.40;;;2.58;;
7783;SDS011;19359;51.402;6.778;2023-05-29T05:34:01;8.70;;;2.17;;
7783;SDS011;19359;51.402;6.778;2023-05-29T05:36:28;17.83;;;3.28;;
7783;SDS011;19359;51.402;6.778;2023-05-29T05:38:56;10.02;;;1.48;;
7783;SDS011;19359;51.402;6.778;2023-05-29T05:41:23;14.23;;;2.70;;
7783;SDS011;19359;51.402;6.778;2023-05-29T05:43:50;12.27;;;3.50;;
7783;SDS011;19359;51.402;6.778;2023-05-29T05:46:18;16.80;;;3.03;;
7783;SDS011;19359;51.402;6.778;2023-05-29T05:48:45;17.45;;;3.08;;
7783;SDS011;19359;51.402;6.778;2023-05-29T05:51:12;27.13;;;7.75;;
7783;SDS011;19359;51.402;6.778;2023-05-29T05:53:39;13.80;;;2.25;;
7783;SDS011;19359;51.402;6.778;2023-05-29T05:56:06;18.17;;;3.00;;
7783;SDS011;19359;51.402;6.778;2023-05-29T05:58:33;13.95;;;3.35;;
7783;SDS011;19359;51.402;6.778;2023-05-29T06:01:00;7.70;;;1.92;;
7783;SDS011;19359;51.402;6.778;2023-05-29T06:03:28;16.55;;;3.28;;
7783;SDS011;19359;51.402;6.778;2023-05-29T06:05:58;12.63;;;2.92;;
7783;SDS011;19359;51.402;6.778;2023-05-29T06:08:24;13.57;;;2.70;;
7783;SDS011;19359;51.402;6.778;2023-05-29T06:10:51;10.65;;;2.42;;
7783;SDS011;19359;51.402;6.778;2023-05-29T06:13:19;16.35;;;2.38;;
7783;SDS011;19359;51.402;6.778;2023-05-29T06:15:45;11.00;;;2.63;;
7783;SDS011;19359;51.402;6.778;2023-05-29T06:18:12;19.90;;;2.72;;
7783;SDS011;19359;51.402;6.778;2023-05-29T06:20:40;3.00;;;1.48;;
7783;SDS011;19359;51.402;6.778;2023-05-29T06:23:07;6.15;;;2.00;;
7783;SDS011;19359;51.402;6.778;2023-05-29T06:25:34;10.77;;;2.65;;
7783;SDS011;19359;51.402;6.778;2023-05-29T06:28:02;5.53;;;1.75;;
7783;SDS011;19359;51.402;6.778;2023-05-29T06:30:30;10.35;;;2.33;;
7783;SDS011;19359;51.402;6.778;2023-05-29T06:32:58;9.57;;;2.20;;
7783;SDS011;19359;51.402;6.778;2023-05-29T06:35:24;12.77;;;2.42;;
7783;SDS011;19359;51.402;6.778;2023-05-29T06:37:53;12.30;;;2.45;;
7783;SDS011;19359;51.402;6.778;2023-05-29T06:40:20;7.10;;;1.90;;
7783;SDS011;19359;51.402;6.778;2023-05-29T06:42:47;14.07;;;2.72;;
7783;SDS011;19359;51.402;6.778;2023-05-29T06:45:14;11.02;;;2.25;;
7783;SDS011;19359;51.402;6.778;2023-05-29T06:47:41;15.02;;;3.00;;
7783;SDS011;19359;51.402;6.778;2023-05-29T06:50:08;6.05;;;1.98;;
7783;SDS011;19359;51.402;6.778;2023-05-29T06:52:36;19.23;;;4.60;;
7783;SDS011;19359;51.402;6.778;2023-05-29T06:55:05;8.98;;;2.05;;
7783;SDS011;19359;51.402;6.778;2023-05-29T06:57:32;14.70;;;3.65;;
7783;SDS011;19359;51.402;6.778;2023-05-29T06:59:59;15.02;;;2.35;;
7783;SDS011;19359;51.402;6.778;2023-05-29T07:02:26;11.45;;;2.40;;
7783;SDS011;19359;51.402;6.778;2023-05-29T07:04:52;8.20;;;1.92;;
7783;SDS011;19359;51.402;6.778;2023-05-29T07:07:19;20.15;;;4.72;;
7783;SDS011;19359;51.402;6.778;2023-05-29T07:09:47;12.73;;;3.10;;
7783;SDS011;19359;51.402;6.778;2023-05-29T07:12:15;19.10;;;3.95;;
7783;SDS011;19359;51.402;6.778;2023-05-29T07:14:42;15.98;;;4.60;;
7783;SDS011;19359;51.402;6.778;2023-05-29T07:17:11;17.25;;;3.35;;
7783;SDS011;19359;51.402;6.778;2023-05-29T07:19:38;12.75;;;3.08;;
7783;SDS011;19359;51.402;6.778;2023-05-29T07:22:05;18.48;;;3.40;;
7783;SDS011;19359;51.402;6.778;2023-05-29T07:24:32;17.10;;;3.60;;
7783;SDS011;19359;51.402;6.778;2023-05-29T07:27:00;12.70;;;3.08;;
7783;SDS011;19359;51.402;6.778;2023-05-29T07:29:29;14.27;;;3.60;;
7783;SDS011;19359;51.402;6.778;2023-05-29T07:31:56;10.32;;;2.78;;
7783;SDS011;19359;51.402;6.778;2023-05-29T07:34:23;14.52;;;2.95;;
7783;SDS011;19359;51.402;6.778;2023-05-29T07:36:57;12.05;;;2.95;;
7783;SDS011;19359;51.402;6.778;2023-05-29T07:39:25;15.15;;;3.50;;
7783;SDS011;19359;51.402;6.778;2023-05-29T07:41:52;17.17;;;4.35;;
7783;SDS011;19359;51.402;6.778;2023-05-29T07:44:19;17.05;;;4.38;;
7783;SDS011;19359;51.402;6.778;2023-05-29T07:46:47;13.50;;;3.17;;
7783;SDS011;19359;51.402;6.778;2023-05-29T07:49:15;13.45;;;3.47;;
7783;SDS011;19359;51.402;6.778;2023-05-29T07:51:42;13.70;;;4.47;;
7783;SDS011;19359;51.402;6.778;2023-05-29T07:54:09;13.57;;;3.78;;
7783;SDS011;19359;51.402;6.778;2023-05-29T07:56:36;20.83;;;5.03;;
7783;SDS011;19359;51.402;6.778;2023-05-29T07:59:03;21.48;;;5.38;;
7783;SDS011;19359;51.402;6.778;2023-05-29T08:01:30;14.93;;;3.80;;
7783;SDS011;19359;51.402;6.778;2023-05-29T08:03:59;11.65;;;3.25;;
7783;SDS011;19359;51.402;6.778;2023-05-29T08:06:26;10.00;;;2.92;;
7783;SDS011;19359;51.402;6.778;2023-05-29T08:08:54;25.85;;;7.22;;
7783;SDS011;19359;51.402;6.778;2023-05-29T08:11:21;16.55;;;4.32;;
7783;SDS011;19359;51.402;6.778;2023-05-29T08:13:48;16.73;;;5.45;;
7783;SDS011;19359;51.402;6.778;2023-05-29T08:16:15;15.40;;;5.55;;
7783;SDS011;19359;51.402;6.778;2023-05-29T08:18:42;20.40;;;4.65;;
7783;SDS011;19359;51.402;6.778;2023-05-29T08:21:11;9.95;;;3.70;;
7783;SDS011;19359;51.402;6.778;2023-05-29T08:23:38;11.75;;;3.55;;
7783;SDS011;19359;51.402;6.778;2023-05-29T08:26:05;16.50;;;3.42;;
7783;SDS011;19359;51.402;6.778;2023-05-29T08:28:32;16.88;;;6.03;;
7783;SDS011;19359;51.402;6.778;2023-05-29T08:31:00;13.48;;;3.60;;
7783;SDS011;19359;51.402;6.778;2023-05-29T08:33:27;8.88;;;2.88;;
7783;SDS011;19359;51.402;6.778;2023-05-29T08:35:54;16.63;;;4.68;;
7783;SDS011;19359;51.402;6.778;2023-05-29T08:38:23;11.27;;;3.25;;
7783;SDS011;19359;51.402;6.778;2023-05-29T08:40:50;18.75;;;6.15;;
7783;SDS011;19359;51.402;6.778;2023-05-29T08:43:20;13.57;;;3.88;;
7783;SDS011;19359;51.402;6.778;2023-05-29T08:45:50;36.53;;;33.33;;
7783;SDS011;19359;51.402;6.778;2023-05-29T08:48:20;34.63;;;31.73;;
7783;SDS011;19359;51.402;6.778;2023-05-29T08:50:49;18.23;;;12.63;;
7783;SDS011;19359;51.402;6.778;2023-05-29T08:53:17;22.48;;;20.65;;
7783;SDS011;19359;51.402;6.778;2023-05-29T08:55:46;26.20;;;19.27;;
7783;SDS011;19359;51.402;6.778;2023-05-29T08:58:16;12.23;;;7.45;;
7783;SDS011;19359;51.402;6.778;2023-05-29T09:00:43;20.83;;;9.73;;
7783;SDS011;19359;51.402;6.778;2023-05-29T09:03:10;11.35;;;7.43;;
7783;SDS011;19359;51.402;6.778;2023-05-29T09:05:38;18.73;;;12.32;;
7783;SDS011;19359;51.402;6.778;2023-05-29T09:08:05;17.10;;;15.30;;
7783;SDS011;19359;51.402;6.778;2023-05-29T09:10:33;20.65;;;18.65;;
7783;SDS011;19359;51.402;6.778;2023-05-29T09:13:02;25.25;;;23.27;;
7783;SDS011;19359;51.402;6.778;2023-05-29T09:15:29;59.53;;;55.47;;
7783;SDS011;19359;51.402;6.778;2023-05-29T09:17:57;39.55;;;36.17;;
7783;SDS011;19359;51.402;6.778;2023-05-29T09:20:25;26.67;;;24.98;;
7783;SDS011;19359;51.402;6.778;2023-05-29T09:22:53;35.40;;;32.22;;
7783;SDS011;19359;51.402;6.778;2023-05-29T09:25:20;41.88;;;38.60;;
7783;SDS011;19359;51.402;6.778;2023-05-29T09:27:50;34.03;;;31.20;;
7783;SDS011;19359;51.402;6.778;2023-05-29T09:30:31;35.55;;;32.67;;
7783;SDS011;19359;51.402;6.778;2023-05-29T09:32:59;37.38;;;34.60;;
7783;SDS011;19359;51.402;6.778;2023-05-29T09:35:27;24.42;;;22.50;;
7783;SDS011;19359;51.402;6.778;2023-05-29T09:37:58;32.17;;;29.42;;
7783;SDS011;19359;51.402;6.778;2023-05-29T09:40:25;29.52;;;26.95;;
7783;SDS011;19359;51.402;6.778;2023-05-29T09:42:53;40.33;;;37.70;;
7783;SDS011;19359;51.402;6.778;2023-05-29T09:45:21;31.67;;;29.45;;
7783;SDS011;19359;51.402;6.778;2023-05-29T09:47:51;12.32;;;9.80;;
7783;SDS011;19359;51.402;6.778;2023-05-29T09:50:20;6.55;;;2.63;;
7783;SDS011;19359;51.402;6.778;2023-05-29T09:52:51;8.57;;;2.78;;
7783;SDS011;19359;51.402;6.778;2023-05-29T09:55:19;11.07;;;4.10;;
7783;SDS011;19359;51.402;6.778;2023-05-29T09:57:46;11.57;;;2.47;;
7783;SDS011;19359;51.402;6.778;2023-05-29T10:00:14;5.18;;;2.20;;
7783;SDS011;19359;51.402;6.778;2023-05-29T10:02:42;15.32;;;3.53;;
7783;SDS011;19359;51.402;6.778;2023-05-29T10:05:10;12.20;;;2.63;;
7783;SDS011;19359;51.402;6.778;2023-05-29T10:07:40;16.33;;;3.72;;
7783;SDS011;19359;51.402;6.778;2023-05-29T10:10:11;13.75;;;3.20;;
7783;SDS011;19359;51.402;6.778;2023-05-29T10:12:39;13.73;;;4.75;;
7783;SDS011;19359;51.402;6.778;2023-05-29T10:15:11;10.57;;;2.63;;
7783;SDS011;19359;51.402;6.778;2023-05-29T10:17:38;14.18;;;4.43;;
7783;SDS011;19359;51.402;6.778;2023-05-29T10:20:12;10.77;;;2.80;;
7783;SDS011;19359;51.402;6.778;2023-05-29T10:22:44;13.68;;;3.50;;
7783;SDS011;19359;51.402;6.778;2023-05-29T10:25:12;13.48;;;3.15;;
7783;SDS011;19359;51.402;6.778;2023-05-29T10:27:40;19.70;;;4.13;;
7783;SDS011;19359;51.402;6.778;2023-05-29T10:30:09;22.77;;;4.28;;
7783;SDS011;19359;51.402;6.778;2023-05-29T10:32:40;11.93;;;3.72;;
7783;SDS011;19359;51.402;6.778;2023-05-29T10:35:14;9.85;;;3.17;;
7783;SDS011;19359;51.402;6.778;2023-05-29T10:37:48;16.10;;;4.30;;
7783;SDS011;19359;51.402;6.778;2023-05-29T10:40:22;10.25;;;2.72;;
7783;SDS011;19359;51.402;6.778;2023-05-29T10:42:50;9.07;;;2.47;;
7783;SDS011;19359;51.402;6.778;2023-05-29T10:45:47;10.10;;;2.35;;
7783;SDS011;19359;51.402;6.778;2023-05-29T10:51:02;6.55;;;1.75;;
7783;SDS011;19359;51.402;6.778;2023-05-29T10:53:30;9.50;;;2.90;;
7783;SDS011;19359;51.402;6.778;2023-05-29T10:55:58;5.70;;;2.00;;
7783;SDS011;19359;51.402;6.778;2023-05-29T10:58:27;10.85;;;2.60;;
7783;SDS011;19359;51.402;6.778;2023-05-29T11:00:57;5.15;;;1.33;;
7783;SDS011;19359;51.402;6.778;2023-05-29T11:03:24;9.13;;;2.50;;
7783;SDS011;19359;51.402;6.778;2023-05-29T11:05:58;10.70;;;2.55;;
7783;SDS011;19359;51.402;6.778;2023-05-29T11:08:33;10.07;;;2.65;;
7783;SDS011;19359;51.402;6.778;2023-05-29T11:11:01;7.18;;;1.90;;
7783;SDS011;19359;51.402;6.778;2023-05-29T11:13:32;10.85;;;3.45;;
7783;SDS011;19359;51.402;6.778;2023-05-29T11:16:05;11.02;;;2.67;;
7783;SDS011;19359;51.402;6.778;2023-05-29T11:18:40;16.33;;;3.78;;
7783;SDS011;19359;51.402;6.778;2023-05-29T11:21:12;8.80;;;2.13;;
7783;SDS011;19359;51.402;6.778;2023-05-29T11:23:43;18.88;;;3.53;;
7783;SDS011;19359;51.402;6.778;2023-05-29T11:26:11;7.78;;;2.20;;
7783;SDS011;19359;51.402;6.778;2023-05-29T11:28:41;12.07;;;3.17;;
7783;SDS011;19359;51.402;6.778;2023-05-29T11:31:08;7.95;;;2.35;;
7783;SDS011;19359;51.402;6.778;2023-05-29T11:33:35;11.88;;;2.78;;
7783;SDS011;19359;51.402;6.778;2023-05-29T11:36:06;8.05;;;2.13;;
7783;SDS011;19359;51.402;6.778;2023-05-29T11:38:35;19.17;;;2.22;;
7783;SDS011;19359;51.402;6.778;2023-05-29T11:41:04;13.95;;;2.45;;
7783;SDS011;19359;51.402;6.778;2023-05-29T11:43:31;16.40;;;4.20;;
7783;SDS011;19359;51.402;6.778;2023-05-29T11:45:58;9.57;;;2.88;;
7783;SDS011;19359;51.402;6.778;2023-05-29T11:48:25;9.30;;;2.50;;
7783;SDS011;19359;51.402;6.778;2023-05-29T11:50:52;7.82;;;2.00;;
7783;SDS011;19359;51.402;6.778;2023-05-29T11:53:19;11.90;;;2.97;;
7783;SDS011;19359;51.402;6.778;2023-05-29T11:55:46;6.57;;;1.77;;
7783;SDS011;19359;51.402;6.778;2023-05-29T11:58:15;8.77;;;2.72;;
7783;SDS011;19359;51.402;6.778;2023-05-29T12:00:42;10.10;;;2.38;;
7783;SDS011;19359;51.402;6.778;2023-05-29T12:03:09;7.22;;;1.80;;
7783;SDS011;19359;51.402;6.778;2023-05-29T12:05:44;7.53;;;2.40;;
7783;SDS011;19359;51.402;6.778;2023-05-29T12:08:12;5.28;;;1.67;;
7783;SDS011;19359;51.402;6.778;2023-05-29T12:10:45;10.55;;;2.38;;
7783;SDS011;19359;51.402;6.778;2023-05-29T12:13:12;11.32;;;2.50;;
7783;SDS011;19359;51.402;6.778;2023-05-29T12:15:43;6.45;;;2.42;;
7783;SDS011;19359;51.402;6.778;2023-05-29T12:18:10;5.95;;;1.88;;
7783;SDS011;19359;51.402;6.778;2023-05-29T12:20:37;8.75;;;2.50;;
7783;SDS011;19359;51.402;6.778;2023-05-29T12:23:05;8.80;;;2.13;;
7783;SDS011;19359;51.402;6.778;2023-05-29T12:25:33;13.63;;;2.65;;
7783;SDS011;19359;51.402;6.778;2023-05-29T12:28:02;6.00;;;1.45;;
7783;SDS011;19359;51.402;6.778;2023-05-29T12:30:29;8.15;;;2.33;;
7783;SDS011;19359;51.402;6.778;2023-05-29T12:32:57;6.15;;;2.10;;
7783;SDS011;19359;51.402;6.778;2023-05-29T12:35:26;6.25;;;2.40;;
7783;SDS011;19359;51.402;6.778;2023-05-29T12:37:54;7.55;;;1.95;;
7783;SDS011;19359;51.402;6.778;2023-05-29T12:40:22;10.80;;;3.10;;
7783;SDS011;19359;51.402;6.778;2023-05-29T12:42:53;7.63;;;2.30;;
7783;SDS011;19359;51.402;6.778;2023-05-29T12:45:21;7.55;;;2.22;;
7783;SDS011;19359;51.402;6.778;2023-05-29T12:47:52;3.90;;;2.00;;
7783;SDS011;19359;51.402;6.778;2023-05-29T12:50:21;19.52;;;4.03;;
7783;SDS011;19359;51.402;6.778;2023-05-29T12:52:57;6.68;;;2.05;;
7783;SDS011;19359;51.402;6.778;2023-05-29T12:55:24;11.63;;;3.08;;
7783;SDS011;19359;51.402;6.778;2023-05-29T12:57:51;10.10;;;2.28;;
7783;SDS011;19359;51.402;6.778;2023-05-29T13:00:18;8.43;;;2.85;;
7783;SDS011;19359;51.402;6.778;2023-05-29T13:02:46;13.48;;;4.45;;
7783;SDS011;19359;51.402;6.778;2023-05-29T13:05:14;6.13;;;1.73;;
7783;SDS011;19359;51.402;6.778;2023-05-29T13:07:45;7.90;;;2.25;;
7783;SDS011;19359;51.402;6.778;2023-05-29T13:10:13;8.98;;;2.75;;
7783;SDS011;19359;51.402;6.778;2023-05-29T13:12:40;16.90;;;2.95;;
7783;SDS011;19359;51.402;6.778;2023-05-29T13:15:07;12.80;;;3.10;;
7783;SDS011;19359;51.402;6.778;2023-05-29T13:17:37;9.85;;;2.60;;
7783;SDS011;19359;51.402;6.778;2023-05-29T13:20:07;7.68;;;2.35;;
7783;SDS011;19359;51.402;6.778;2023-05-29T13:22:34;8.35;;;2.20;;
7783;SDS011;19359;51.402;6.778;2023-05-29T13:25:03;6.85;;;1.98;;
7783;SDS011;19359;51.402;6.778;2023-05-29T13:27:32;8.60;;;2.83;;
7783;SDS011;19359;51.402;6.778;2023-05-29T13:30:00;9.65;;;2.47;;
7783;SDS011;19359;51.402;6.778;2023-05-29T13:32:28;17.73;;;5.22;;
7783;SDS011;19359;51.402;6.778;2023-05-29T13:34:55;9.70;;;2.35;;
7783;SDS011;19359;51.402;6.778;2023-05-29T13:37:22;7.75;;;2.88;;
7783;SDS011;19359;51.402;6.778;2023-05-29T13:39:49;9.23;;;2.97;;
7783;SDS011;19359;51.402;6.778;2023-05-29T13:42:17;8.27;;;2.97;;
7783;SDS011;19359;51.402;6.778;2023-05-29T13:44:45;16.55;;;4.28;;
7783;SDS011;19359;51.402;6.778;2023-05-29T13:47:12;9.82;;;2.58;;
7783;SDS011;19359;51.402;6.778;2023-05-29T13:49:39;9.55;;;2.50;;
7783;SDS011;19359;51.402;6.778;2023-05-29T13:52:06;10.25;;;2.63;;
7783;SDS011;19359;51.402;6.778;2023-05-29T13:54:33;18.10;;;3.45;;
7783;SDS011;19359;51.402;6.778;2023-05-29T13:57:01;9.25;;;2.90;;
7783;SDS011;19359;51.402;6.778;2023-05-29T13:59:30;14.00;;;4.13;;
7783;SDS011;19359;51.402;6.778;2023-05-29T14:01:57;15.38;;;5.10;;
7783;SDS011;19359;51.402;6.778;2023-05-29T14:04:24;10.10;;;2.95;;
7783;SDS011;19359;51.402;6.778;2023-05-29T14:06:52;22.60;;;6.00;;
7783;SDS011;19359;51.402;6.778;2023-05-29T14:09:19;10.25;;;3.80;;
7783;SDS011;19359;51.402;6.778;2023-05-29T14:11:52;14.32;;;4.25;;
7783;SDS011;19359;51.402;6.778;2023-05-29T14:14:19;24.88;;;6.18;;
7783;SDS011;19359;51.402;6.778;2023-05-29T14:16:48;17.98;;;3.17;;
7783;SDS011;19359;51.402;6.778;2023-05-29T14:19:15;14.95;;;4.03;;
7783;SDS011;19359;51.402;6.778;2023-05-29T14:21:42;20.38;;;5.25;;
7783;SDS011;19359;51.402;6.778;2023-05-29T14:24:09;7.25;;;3.08;;
7783;SDS011;19359;51.402;6.778;2023-05-29T14:26:37;20.80;;;5.20;;
7783;SDS011;19359;51.402;6.778;2023-05-29T14:29:04;14.25;;;3.28;;
7783;SDS011;19359;51.402;6.778;2023-05-29T14:31:31;18.20;;;4.85;;
7783;SDS011;19359;51.402;6.778;2023-05-29T14:33:59;6.45;;;2.47;;
7783;SDS011;19359;51.402;6.778;2023-05-29T14:36:26;21.30;;;5.65;;
7783;SDS011;19359;51.402;6.778;2023-05-29T14:38:54;11.25;;;2.92;;
7783;SDS011;19359;51.402;6.778;2023-05-29T14:41:21;9.75;;;3.58;;
7783;SDS011;19359;51.402;6.778;2023-05-29T14:43:49;17.55;;;3.40;;
7783;SDS011;19359;51.402;6.778;2023-05-29T14:46:16;8.27;;;2.95;;